Time,TemperatureF,DewpointF,PressureIn,WindDirection,WindDirectionDegrees,WindSpeedMPH,WindSpeedGustMPH,Humidity,HourlyPrecipIn,Conditions,Clouds,dailyrainin,SolarRadiationWatts/m^2,SoftwareType,DateUTC
2013-02-22 00:02:00,36.8,32.7,30.10,WNW,299,1.0,2.0,85,0.00,,,0.00,0,HR-IXPWINDi_r2_v1.2.,2013-02-22 08:02:00,
2013-02-22 00:07:00,36.6,32.2,30.09,WNW,299,2.0,2.0,84,0.00,,,0.00,0,HR-IXPWINDi_r2_v1.2.,2013-02-22 08:07:00,
2013-02-22 00:12:00,36.4,32.3,30.09,NNW,331,1.0,3.0,85,0.00,,,0.00,0,HR-IXPWINDi_r2_v1.2.,2013-02-22 08:12:00,
2013-02-22 00:18:00,37.0,32.3,30.09,NW,321,0.0,3.0,83,0.00,,,0.00,0,HR-IXPWINDi_r2_v1.2.,2013-02-22 08:18:00,
2013-02-22 00:23:00,36.8,32.4,30.10,NW,321,1.0,3.0,84,0.00,,,0.00,0,HR-IXPWINDi_r2_v1.2.,2013-02-22 08:23:00,
2013-02-22 00:28:00,36.6,31.9,30.10,NW,321,2.0,2.0,83,0.00,,,0.00,0,HR-IXPWINDi_r2_v1.2.,2013-02-22 08:28:00,
2013-02-22 00:33:00,35.9,31.8,30.10,NW,321,0.0,3.0,85,0.00,,,0.00,0,HR-IXPWINDi_r2_v1.2.,2013-02-22 08:33:00,
2013-02-22 00:38:00,36.0,31.9,30.10,NW,321,0.0,3.0,85,0.00,,,0.00,0,HR-IXPWINDi_r2_v1.2.,2013-02-22 08:38:00,
2013-02-22 00:44:00,35.8,31.4,30.10,NW,321,0.0,1.0,84,0.00,,,0.00,0,HR-IXPWINDi_r2_v1.2.,2013-02-22 08:44:00,
2013-02-22 00:49:00,35.2,31.1,30.10,NW,321,2.0,2.0,85,0.00,,,0.00,0,HR-IXPWINDi_r2_v1.2.,2013-02-22 08:49:00,
2013-02-22 00:55:00,35.6,31.8,30.10,NW,321,2.0,2.0,86,0.00,,,0.00,0,HR-IXPWINDi_r2_v1.2.,2013-02-22 08:55:00,
2013-02-22 01:00:00,35.4,31.6,30.10,NW,321,1.0,2.0,86,0.00,,,0.00,0,HR-IXPWINDi_r2_v1.2.,2013-02-22 09:00:00,
2013-02-22 01:06:00,35.3,31.8,30.10,NW,321,2.0,3.0,87,0.00,,,0.00,0,HR-IXPWINDi_r2_v1.2.,2013-02-22 09:06:00,
2013-02-22 01:11:00,36.1,32.3,30.10,WNW,299,3.0,4.0,86,0.00,,,0.00,0,HR-IXPWINDi_r2_v1.2.,2013-02-22 09:11:00,
2013-02-22 01:16:00,37.0,32.0,30.10,WNW,301,1.0,4.0,82,0.00,,,0.00,0,HR-IXPWINDi_r2_v1.2.,2013-02-22 09:16:00,
2013-02-22 01:21:00,37.0,31.7,30.10,WNW,302,1.0,4.0,81,0.00,,,0.00,0,HR-IXPWINDi_r2_v1.2.,2013-02-22 09:21:00,
2013-02-22 01:26:00,37.5,31.2,30.10,WNW,302,1.0,3.0,78,0.00,,,0.00,0,HR-IXPWINDi_r2_v1.2.,2013-02-22 09:26:00,
2013-02-22 01:31:00,37.8,31.2,30.10,WNW,295,2.0,4.0,77,0.00,,,0.00,0,HR-IXPWINDi_r2_v1.2.,2013-02-22 09:31:00,
2013-02-22 01:36:00,38.6,31.0,30.10,NW,321,1.0,4.0,74,0.00,,,0.00,0,HR-IXPWINDi_r2_v1.2.,2013-02-22 09:36:00,
2013-02-22 01:42:00,39.0,30.7,30.11,NW,304,1.0,4.0,72,0.00,,,0.00,0,HR-IXPWINDi_r2_v1.2.,2013-02-22 09:42:00,
2013-02-22 01:47:00,38.6,30.3,30.11,NW,304,1.0,3.0,72,0.00,,,0.00,0,HR-IXPWINDi_r2_v1.2.,2013-02-22 09:47:00,
2013-02-22 01:52:00,38.0,30.4,30.11,NW,304,2.0,2.0,74,0.00,,,0.00,0,HR-IXPWINDi_r2_v1.2.,2013-02-22 09:52:00,
2013-02-22 01:57:00,37.8,30.2,30.11,NW,304,1.0,2.0,74,0.00,,,0.00,0,HR-IXPWINDi_r2_v1.2.,2013-02-22 09:57:00,
2013-02-22 02:02:00,37.3,30.4,30.10,NW,309,1.0,2.0,76,0.00,,,0.00,0,HR-IXPWINDi_r2_v1.2.,2013-02-22 10:02:00,
2013-02-22 02:07:00,37.1,30.5,30.10,NW,311,0.0,2.0,77,0.00,,,0.00,0,HR-IXPWINDi_r2_v1.2.,2013-02-22 10:07:00,
2013-02-22 02:12:00,36.7,30.5,30.10,NW,311,0.0,2.0,78,0.00,,,0.00,0,HR-IXPWINDi_r2_v1.2.,2013-02-22 10:12:00,
2013-02-22 02:17:00,36.7,30.5,30.10,NW,311,0.0,3.0,78,0.00,,,0.00,0,HR-IXPWINDi_r2_v1.2.,2013-02-22 10:17:00,
2013-02-22 02:23:00,36.1,30.5,30.10,NW,311,0.0,3.0,80,0.00,,,0.00,0,HR-IXPWINDi_r2_v1.2.,2013-02-22 10:23:00,
2013-02-22 02:28:00,35.9,30.6,30.10,NW,311,1.0,2.0,81,0.00,,,0.00,0,HR-IXPWINDi_r2_v1.2.,2013-02-22 10:28:00,
2013-02-22 02:33:00,35.7,30.4,30.10,NW,311,1.0,2.0,81,0.00,,,0.00,0,HR-IXPWINDi_r2_v1.2.,2013-02-22 10:33:00,
2013-02-22 02:38:00,35.5,30.2,30.10,NW,311,0.0,2.0,81,0.00,,,0.00,0,HR-IXPWINDi_r2_v1.2.,2013-02-22 10:38:00,
2013-02-22 02:43:00,35.9,30.9,30.10,NW,311,1.0,2.0,82,0.00,,,0.00,0,HR-IXPWINDi_r2_v1.2.,2013-02-22 10:43:00,
2013-02-22 02:49:00,36.0,30.7,30.10,NW,311,0.0,2.0,81,0.00,,,0.00,0,HR-IXPWINDi_r2_v1.2.,2013-02-22 10:49:00,
2013-02-22 02:54:00,35.2,30.2,30.10,NW,311,0.0,2.0,82,0.00,,,0.00,0,HR-IXPWINDi_r2_v1.2.,2013-02-22 10:54:00,
2013-02-22 02:59:00,35.4,30.7,30.10,WNW,302,0.0,3.0,83,0.00,,,0.00,0,HR-IXPWINDi_r2_v1.2.,2013-02-22 10:59:00,
2013-02-22 03:05:00,35.5,30.5,30.10,NW,313,0.0,4.0,82,0.00,,,0.00,0,HR-IXPWINDi_r2_v1.2.,2013-02-22 11:05:00,
2013-02-22 03:10:00,36.0,30.4,30.10,WNW,286,4.0,4.0,80,0.00,,,0.00,0,HR-IXPWINDi_r2_v1.2.,2013-02-22 11:10:00,
2013-02-22 03:15:00,36.9,30.7,30.10,WNW,294,1.0,4.0,78,0.00,,,0.00,0,HR-IXPWINDi_r2_v1.2.,2013-02-22 11:15:00,
2013-02-22 03:20:00,38.2,30.6,30.10,NW,317,1.0,4.0,74,0.00,,,0.00,0,HR-IXPWINDi_r2_v1.2.,2013-02-22 11:20:00,
2013-02-22 03:25:00,37.7,30.1,30.10,NW,317,0.0,4.0,74,0.00,,,0.00,0,HR-IXPWINDi_r2_v1.2.,2013-02-22 11:25:00,
2013-02-22 03:31:00,36.7,30.1,30.10,NW,317,1.0,2.0,77,0.00,,,0.00,0,HR-IXPWINDi_r2_v1.2.,2013-02-22 11:31:00,
2013-02-22 03:36:00,36.0,29.8,30.10,WNW,300,0.0,3.0,78,0.00,,,0.00,0,HR-IXPWINDi_r2_v1.2.,2013-02-22 11:36:00,
2013-02-22 03:41:00,35.6,29.7,30.10,WNW,300,2.0,3.0,79,0.00,,,0.00,0,HR-IXPWINDi_r2_v1.2.,2013-02-22 11:41:00,
2013-02-22 03:46:00,35.2,29.3,30.10,WNW,300,0.0,2.0,79,0.00,,,0.00,0,HR-IXPWINDi_r2_v1.2.,2013-02-22 11:46:00,
2013-02-22 03:52:00,34.9,29.6,30.11,WNW,300,0.0,2.0,81,0.00,,,0.00,0,HR-IXPWINDi_r2_v1.2.,2013-02-22 11:52:00,
2013-02-22 03:57:00,34.3,29.4,30.11,WNW,300,0.0,1.0,82,0.00,,,0.00,0,HR-IXPWINDi_r2_v1.2.,2013-02-22 11:57:00,
2013-02-22 04:02:00,34.2,29.8,30.11,WNW,300,0.0,1.0,84,0.00,,,0.00,0,HR-IXPWINDi_r2_v1.2.,2013-02-22 12:02:00,
2013-02-22 04:07:00,34.5,30.1,30.11,WNW,299,3.0,3.0,84,0.00,,,0.00,0,HR-IXPWINDi_r2_v1.2.,2013-02-22 12:07:00,
2013-02-22 04:13:00,35.6,30.0,30.11,WNW,302,0.0,4.0,80,0.00,,,0.00,0,HR-IXPWINDi_r2_v1.2.,2013-02-22 12:13:00,
2013-02-22 04:18:00,35.5,29.9,30.11,WNW,302,1.0,4.0,80,0.00,,,0.00,0,HR-IXPWINDi_r2_v1.2.,2013-02-22 12:18:00,
2013-02-22 04:23:00,34.5,29.6,30.11,WNW,302,0.0,1.0,82,0.00,,,0.00,0,HR-IXPWINDi_r2_v1.2.,2013-02-22 12:23:00,
2013-02-22 04:28:00,33.9,29.3,30.11,WNW,302,0.0,2.0,83,0.00,,,0.00,0,HR-IXPWINDi_r2_v1.2.,2013-02-22 12:28:00,
2013-02-22 04:34:00,33.9,29.6,30.11,WNW,302,0.0,2.0,84,0.00,,,0.00,0,HR-IXPWINDi_r2_v1.2.,2013-02-22 12:34:00,
2013-02-22 04:39:00,33.6,29.6,30.11,WNW,302,1.0,1.0,85,0.00,,,0.00,0,HR-IXPWINDi_r2_v1.2.,2013-02-22 12:39:00,
2013-02-22 04:44:00,33.4,29.6,30.11,WNW,302,2.0,2.0,86,0.00,,,0.00,0,HR-IXPWINDi_r2_v1.2.,2013-02-22 12:44:00,
2013-02-22 04:49:00,33.4,29.6,30.12,WNW,302,1.0,2.0,86,0.00,,,0.00,0,HR-IXPWINDi_r2_v1.2.,2013-02-22 12:49:00,
2013-02-22 04:55:00,33.5,30.0,30.12,WNW,303,2.0,2.0,87,0.00,,,0.00,0,HR-IXPWINDi_r2_v1.2.,2013-02-22 12:55:00,
2013-02-22 05:00:00,33.7,30.2,30.12,WNW,303,2.0,2.0,87,0.00,,,0.00,0,HR-IXPWINDi_r2_v1.2.,2013-02-22 13:00:00,
2013-02-22 05:05:00,33.7,29.9,30.12,NW,304,3.0,3.0,86,0.00,,,0.00,0,HR-IXPWINDi_r2_v1.2.,2013-02-22 13:05:00,
2013-02-22 05:10:00,34.1,30.3,30.12,NW,306,1.0,3.0,86,0.00,,,0.00,0,HR-IXPWINDi_r2_v1.2.,2013-02-22 13:10:00,
2013-02-22 05:16:00,34.1,30.6,30.12,NW,306,0.0,3.0,87,0.00,,,0.00,0,HR-IXPWINDi_r2_v1.2.,2013-02-22 13:16:00,
2013-02-22 05:21:00,33.8,30.0,30.12,NW,306,0.0,1.0,86,0.00,,,0.00,0,HR-IXPWINDi_r2_v1.2.,2013-02-22 13:21:00,
2013-02-22 05:26:00,33.7,29.9,30.12,NW,306,0.0,1.0,86,0.00,,,0.00,0,HR-IXPWINDi_r2_v1.2.,2013-02-22 13:26:00,
2013-02-22 05:31:00,33.6,29.8,30.13,NW,306,0.0,0.0,86,0.00,,,0.00,0,HR-IXPWINDi_r2_v1.2.,2013-02-22 13:31:00,
2013-02-22 05:36:00,33.8,29.7,30.13,NW,306,1.0,1.0,85,0.00,,,0.00,0,HR-IXPWINDi_r2_v1.2.,2013-02-22 13:36:00,
2013-02-22 05:42:00,33.5,29.5,30.13,NW,306,1.0,2.0,85,0.00,,,0.00,0,HR-IXPWINDi_r2_v1.2.,2013-02-22 13:42:00,
2013-02-22 05:47:00,33.1,29.3,30.13,NW,306,1.0,3.0,86,0.00,,,0.00,0,HR-IXPWINDi_r2_v1.2.,2013-02-22 13:47:00,
2013-02-22 05:52:00,33.0,29.5,30.13,NW,306,1.0,3.0,87,0.00,,,0.00,0,HR-IXPWINDi_r2_v1.2.,2013-02-22 13:52:00,
2013-02-22 05:57:00,33.0,29.5,30.13,NW,306,1.0,2.0,87,0.00,,,0.00,0,HR-IXPWINDi_r2_v1.2.,2013-02-22 13:57:00,
2013-02-22 06:03:00,32.8,29.3,30.14,NW,306,2.0,2.0,87,0.00,,,0.00,0,HR-IXPWINDi_r2_v1.2.,2013-02-22 14:03:00,
2013-02-22 06:08:00,32.7,29.2,30.14,NW,306,1.0,2.0,87,0.00,,,0.00,0,HR-IXPWINDi_r2_v1.2.,2013-02-22 14:08:00,
2013-02-22 06:13:00,32.6,29.4,30.14,NW,306,1.0,2.0,88,0.00,,,0.00,0,HR-IXPWINDi_r2_v1.2.,2013-02-22 14:13:00,
2013-02-22 06:18:00,32.4,29.2,30.14,NW,306,0.0,2.0,88,0.00,,,0.00,0,HR-IXPWINDi_r2_v1.2.,2013-02-22 14:18:00,
2013-02-22 06:23:00,32.6,29.4,30.14,NW,306,1.0,2.0,88,0.00,,,0.00,0,HR-IXPWINDi_r2_v1.2.,2013-02-22 14:23:00,
2013-02-22 06:29:00,32.5,29.3,30.15,NW,306,2.0,2.0,88,0.00,,,0.00,0,HR-IXPWINDi_r2_v1.2.,2013-02-22 14:29:00,
2013-02-22 06:34:00,32.6,29.4,30.15,NW,306,0.0,2.0,88,0.00,,,0.00,0,HR-IXPWINDi_r2_v1.2.,2013-02-22 14:34:00,
2013-02-22 06:39:00,32.5,29.3,30.15,NW,306,1.0,2.0,88,0.00,,,0.00,7,HR-IXPWINDi_r2_v1.2.,2013-02-22 14:39:00,
2013-02-22 06:44:00,32.5,29.3,30.15,NW,306,1.0,3.0,88,0.00,,,0.00,7,HR-IXPWINDi_r2_v1.2.,2013-02-22 14:44:00,
2013-02-22 06:49:00,32.5,29.3,30.15,NW,309,1.0,3.0,88,0.00,,,0.00,7,HR-IXPWINDi_r2_v1.2.,2013-02-22 14:49:00,
2013-02-22 06:55:00,33.4,29.9,30.15,NW,309,0.0,2.0,87,0.00,,,0.00,12,HR-IXPWINDi_r2_v1.2.,2013-02-22 14:55:00,
2013-02-22 07:00:00,33.5,29.5,30.16,NW,309,0.0,1.0,85,0.00,,,0.00,14,HR-IXPWINDi_r2_v1.2.,2013-02-22 15:00:00,
2013-02-22 07:05:00,33.5,29.5,30.16,NW,309,0.0,1.0,85,0.00,,,0.00,19,HR-IXPWINDi_r2_v1.2.,2013-02-22 15:05:00,
2013-02-22 07:10:00,34.7,30.3,30.16,NW,309,0.0,2.0,84,0.00,,,0.00,67,HR-IXPWINDi_r2_v1.2.,2013-02-22 15:10:00,
2013-02-22 07:15:00,36.4,31.1,30.16,NW,309,1.0,2.0,81,0.00,,,0.00,81,HR-IXPWINDi_r2_v1.2.,2013-02-22 15:15:00,
2013-02-22 07:20:00,38.0,31.4,30.16,NW,309,0.0,2.0,77,0.00,,,0.00,97,HR-IXPWINDi_r2_v1.2.,2013-02-22 15:20:00,
2013-02-22 07:25:00,38.9,31.6,30.17,NW,309,0.0,2.0,75,0.00,,,0.00,109,HR-IXPWINDi_r2_v1.2.,2013-02-22 15:25:00,
2013-02-22 07:31:00,39.5,31.9,30.17,NW,310,2.0,2.0,74,0.00,,,0.00,137,HR-IXPWINDi_r2_v1.2.,2013-02-22 15:31:00,
2013-02-22 07:36:00,40.2,31.9,30.17,North,351,0.0,3.0,72,0.00,,,0.00,167,HR-IXPWINDi_r2_v1.2.,2013-02-22 15:36:00,
2013-02-22 07:41:00,41.1,32.4,30.17,North,351,1.0,3.0,71,0.00,,,0.00,162,HR-IXPWINDi_r2_v1.2.,2013-02-22 15:41:00,
2013-02-22 07:46:00,42.4,31.8,30.17,North,355,0.0,2.0,66,0.00,,,0.00,81,HR-IXPWINDi_r2_v1.2.,2013-02-22 15:46:00,
2013-02-22 07:52:00,42.7,32.1,30.17,North,351,1.0,3.0,66,0.00,,,0.00,54,HR-IXPWINDi_r2_v1.2.,2013-02-22 15:52:00,
2013-02-22 07:57:00,42.9,31.9,30.17,North,351,0.0,3.0,65,0.00,,,0.00,63,HR-IXPWINDi_r2_v1.2.,2013-02-22 15:57:00,
2013-02-22 08:02:00,43.1,33.2,30.17,North,351,0.0,1.0,68,0.00,,,0.00,63,HR-IXPWINDi_r2_v1.2.,2013-02-22 16:02:00,
2013-02-22 08:07:00,44.1,34.2,30.17,North,360,1.0,2.0,68,0.00,,,0.00,100,HR-IXPWINDi_r2_v1.2.,2013-02-22 16:07:00,
2013-02-22 08:12:00,44.6,33.1,30.18,SSE,156,2.0,3.0,64,0.00,,,0.00,76,HR-IXPWINDi_r2_v1.2.,2013-02-22 16:12:00,
2013-02-22 08:17:00,44.8,34.1,30.18,SSE,156,2.0,3.0,66,0.00,,,0.00,54,HR-IXPWINDi_r2_v1.2.,2013-02-22 16:17:00,
2013-02-22 08:23:00,45.2,35.2,30.18,SSE,156,0.0,2.0,68,0.00,,,0.00,49,HR-IXPWINDi_r2_v1.2.,2013-02-22 16:23:00,
2013-02-22 08:28:00,46.2,35.4,30.18,SSE,156,0.0,2.0,66,0.00,,,0.00,130,HR-IXPWINDi_r2_v1.2.,2013-02-22 16:28:00,
2013-02-22 08:33:00,46.8,35.6,30.19,SSE,156,0.0,2.0,65,0.00,,,0.00,81,HR-IXPWINDi_r2_v1.2.,2013-02-22 16:33:00,
2013-02-22 08:38:00,47.8,35.4,30.18,SE,132,0.0,3.0,62,0.00,,,0.00,47,HR-IXPWINDi_r2_v1.2.,2013-02-22 16:38:00,
2013-02-22 08:43:00,47.9,34.2,30.18,ESE,120,1.0,3.0,59,0.00,,,0.00,102,HR-IXPWINDi_r2_v1.2.,2013-02-22 16:43:00,
2013-02-22 08:49:00,48.4,34.7,30.19,South,173,1.0,3.0,59,0.00,,,0.00,65,HR-IXPWINDi_r2_v1.2.,2013-02-22 16:49:00,
2013-02-22 08:54:00,48.6,34.5,30.18,South,178,2.0,3.0,58,0.00,,,0.00,49,HR-IXPWINDi_r2_v1.2.,2013-02-22 16:54:00,
2013-02-22 08:59:00,49.6,37.5,30.18,South,171,0.0,3.0,63,0.00,,,0.00,69,HR-IXPWINDi_r2_v1.2.,2013-02-22 16:59:00,
2013-02-22 09:04:00,50.1,36.7,30.18,South,173,0.0,3.0,60,0.00,,,0.00,49,HR-IXPWINDi_r2_v1.2.,2013-02-22 17:04:00,
2013-02-22 09:09:00,51.0,37.1,30.18,SSE,166,0.0,3.0,59,0.00,,,0.00,97,HR-IXPWINDi_r2_v1.2.,2013-02-22 17:09:00,
2013-02-22 09:15:00,51.2,33.7,30.18,SE,142,1.0,3.0,51,0.00,,,0.00,74,HR-IXPWINDi_r2_v1.2.,2013-02-22 17:15:00,
2013-02-22 09:20:00,51.2,35.1,30.18,South,185,2.0,3.0,54,0.00,,,0.00,120,HR-IXPWINDi_r2_v1.2.,2013-02-22 17:20:00,
2013-02-22 09:25:00,52.3,37.9,30.18,South,169,2.0,3.0,58,0.00,,,0.00,83,HR-IXPWINDi_r2_v1.2.,2013-02-22 17:25:00,
2013-02-22 09:30:00,52.1,33.5,30.18,SSE,161,2.0,4.0,49,0.00,,,0.00,72,HR-IXPWINDi_r2_v1.2.,2013-02-22 17:30:00,
2013-02-22 09:35:00,52.5,33.3,30.17,South,173,2.0,4.0,48,0.00,,,0.00,47,HR-IXPWINDi_r2_v1.2.,2013-02-22 17:35:00,
2013-02-22 09:41:00,53.5,33.2,30.17,SSW,194,0.0,4.0,46,0.00,,,0.00,70,HR-IXPWINDi_r2_v1.2.,2013-02-22 17:41:00,
2013-02-22 09:46:00,54.1,33.2,30.18,SSW,192,0.0,4.0,45,0.00,,,0.00,104,HR-IXPWINDi_r2_v1.2.,2013-02-22 17:46:00,
2013-02-22 09:51:00,54.6,33.7,30.17,South,187,2.0,5.0,45,0.00,,,0.00,63,HR-IXPWINDi_r2_v1.2.,2013-02-22 17:51:00,
2013-02-22 09:56:00,56.2,34.0,30.17,South,172,2.0,6.0,43,0.00,,,0.00,239,HR-IXPWINDi_r2_v1.2.,2013-02-22 17:56:00,
2013-02-22 10:01:00,56.6,34.9,30.17,SSW,205,2.0,6.0,44,0.00,,,0.00,431,HR-IXPWINDi_r2_v1.2.,2013-02-22 18:01:00,
2013-02-22 10:06:00,57.3,32.5,30.17,SSE,163,1.0,4.0,39,0.00,,,0.00,487,HR-IXPWINDi_r2_v1.2.,2013-02-22 18:06:00,
2013-02-22 10:11:00,58.1,32.6,30.17,SSW,192,1.0,5.0,38,0.00,,,0.00,156,HR-IXPWINDi_r2_v1.2.,2013-02-22 18:11:00,
2013-02-22 10:16:00,58.6,33.7,30.17,South,175,1.0,5.0,39,0.00,,,0.00,255,HR-IXPWINDi_r2_v1.2.,2013-02-22 18:16:00,
2013-02-22 10:22:00,58.9,32.0,30.17,SSE,150,2.0,4.0,36,0.00,,,0.00,503,HR-IXPWINDi_r2_v1.2.,2013-02-22 18:22:00,
2013-02-22 10:27:00,58.9,33.3,30.17,South,183,0.0,3.0,38,0.00,,,0.00,497,HR-IXPWINDi_r2_v1.2.,2013-02-22 18:27:00,
2013-02-22 10:32:00,60.1,34.4,30.17,SSE,165,3.0,6.0,38,0.00,,,0.00,501,HR-IXPWINDi_r2_v1.2.,2013-02-22 18:32:00,
2013-02-22 10:37:00,60.9,34.4,30.17,SE,127,2.0,6.0,37,0.00,,,0.00,519,HR-IXPWINDi_r2_v1.2.,2013-02-22 18:37:00,
2013-02-22 10:43:00,61.7,35.1,30.17,ESE,117,2.0,7.0,37,0.00,,,0.00,561,HR-IXPWINDi_r2_v1.2.,2013-02-22 18:43:00,
2013-02-22 10:48:00,60.8,33.0,30.17,SE,127,0.0,7.0,35,0.00,,,0.00,603,HR-IXPWINDi_r2_v1.2.,2013-02-22 18:48:00,
2013-02-22 10:53:00,60.3,33.2,30.17,South,169,5.0,5.0,36,0.00,,,0.00,647,HR-IXPWINDi_r2_v1.2.,2013-02-22 18:53:00,
2013-02-22 10:58:00,61.6,32.2,30.16,South,184,2.0,6.0,33,0.00,,,0.00,682,HR-IXPWINDi_r2_v1.2.,2013-02-22 18:58:00,
2013-02-22 11:03:00,62.3,33.5,30.16,SSE,167,4.0,5.0,34,0.00,,,0.00,708,HR-IXPWINDi_r2_v1.2.,2013-02-22 19:03:00,
2013-02-22 11:09:00,62.9,34.8,30.16,South,180,0.0,4.0,35,0.00,,,0.00,722,HR-IXPWINDi_r2_v1.2.,2013-02-22 19:09:00,
2013-02-22 11:14:00,63.1,32.7,30.16,SSW,192,0.0,4.0,32,0.00,,,0.00,728,HR-IXPWINDi_r2_v1.2.,2013-02-22 19:14:00,
2013-02-22 11:19:00,63.3,34.4,30.16,ESE,112,2.0,4.0,34,0.00,,,0.00,715,HR-IXPWINDi_r2_v1.2.,2013-02-22 19:19:00,
2013-02-22 11:24:00,63.6,34.7,30.16,SE,133,3.0,8.0,34,0.00,,,0.00,679,HR-IXPWINDi_r2_v1.2.,2013-02-22 19:24:00,
2013-02-22 11:29:00,64.1,33.6,30.15,ESE,109,1.0,8.0,32,0.00,,,0.00,626,HR-IXPWINDi_r2_v1.2.,2013-02-22 19:29:00,
2013-02-22 11:34:00,64.2,34.5,30.15,South,184,3.0,8.0,33,0.00,,,0.00,594,HR-IXPWINDi_r2_v1.2.,2013-02-22 19:34:00,
2013-02-22 11:40:00,64.7,34.1,30.15,SE,125,4.0,9.0,32,0.00,,,0.00,575,HR-IXPWINDi_r2_v1.2.,2013-02-22 19:40:00,
2013-02-22 11:45:00,65.0,33.6,30.15,SSE,161,1.0,9.0,31,0.00,,,0.00,582,HR-IXPWINDi_r2_v1.2.,2013-02-22 19:45:00,
2013-02-22 11:50:00,64.4,33.1,30.14,South,171,1.0,7.0,31,0.00,,,0.00,615,HR-IXPWINDi_r2_v1.2.,2013-02-22 19:50:00,
2013-02-22 11:55:00,64.4,33.1,30.14,SSW,199,3.0,8.0,31,0.00,,,0.00,664,HR-IXPWINDi_r2_v1.2.,2013-02-22 19:55:00,
2013-02-22 12:00:00,65.7,34.2,30.14,SSE,159,4.0,8.0,31,0.00,,,0.00,712,HR-IXPWINDi_r2_v1.2.,2013-02-22 20:00:00,
2013-02-22 12:06:00,66.5,34.9,30.14,SE,132,1.0,7.0,31,0.00,,,0.00,745,HR-IXPWINDi_r2_v1.2.,2013-02-22 20:06:00,
2013-02-22 12:11:00,66.2,33.8,30.14,SSE,148,3.0,5.0,30,0.00,,,0.00,756,HR-IXPWINDi_r2_v1.2.,2013-02-22 20:11:00,
2013-02-22 12:16:00,65.9,31.9,30.14,South,180,1.0,8.0,28,0.00,,,0.00,756,HR-IXPWINDi_r2_v1.2.,2013-02-22 20:16:00,
2013-02-22 12:21:00,66.5,33.2,30.14,SSE,168,4.0,8.0,29,0.00,,,0.00,752,HR-IXPWINDi_r2_v1.2.,2013-02-22 20:21:00,
2013-02-22 12:26:00,66.6,32.5,30.13,South,180,5.0,8.0,28,0.00,,,0.00,751,HR-IXPWINDi_r2_v1.2.,2013-02-22 20:26:00,
2013-02-22 12:32:00,66.4,32.3,30.13,SE,146,7.0,8.0,28,0.00,,,0.00,752,HR-IXPWINDi_r2_v1.2.,2013-02-22 20:32:00,
2013-02-22 12:37:00,66.7,33.4,30.13,SSE,157,3.0,8.0,29,0.00,,,0.00,751,HR-IXPWINDi_r2_v1.2.,2013-02-22 20:37:00,
2013-02-22 12:42:00,66.0,32.8,30.13,SSE,166,1.0,9.0,29,0.00,,,0.00,745,HR-IXPWINDi_r2_v1.2.,2013-02-22 20:42:00,
2013-02-22 12:47:00,65.9,31.9,30.12,SSW,192,1.0,10.0,28,0.00,,,0.00,738,HR-IXPWINDi_r2_v1.2.,2013-02-22 20:47:00,
2013-02-22 12:53:00,67.2,33.8,30.12,SSE,167,4.0,10.0,29,0.00,,,0.00,735,HR-IXPWINDi_r2_v1.2.,2013-02-22 20:53:00,
2013-02-22 12:58:00,66.9,32.7,30.12,South,176,3.0,8.0,28,0.00,,,0.00,729,HR-IXPWINDi_r2_v1.2.,2013-02-22 20:58:00,
2013-02-22 13:03:00,66.4,33.2,30.12,South,171,7.0,8.0,29,0.00,,,0.00,714,HR-IXPWINDi_r2_v1.2.,2013-02-22 21:03:00,
2013-02-22 13:08:00,66.5,37.2,30.12,SSE,155,1.0,8.0,34,0.00,,,0.00,694,HR-IXPWINDi_r2_v1.2.,2013-02-22 21:08:00,
2013-02-22 13:13:00,66.7,36.7,30.12,SSE,164,2.0,9.0,33,0.00,,,0.00,673,HR-IXPWINDi_r2_v1.2.,2013-02-22 21:13:00,
2013-02-22 13:18:00,66.8,38.2,30.11,SSE,162,2.0,9.0,35,0.00,,,0.00,642,HR-IXPWINDi_r2_v1.2.,2013-02-22 21:18:00,
2013-02-22 13:24:00,67.1,39.9,30.11,SSW,204,2.0,7.0,37,0.00,,,0.00,631,HR-IXPWINDi_r2_v1.2.,2013-02-22 21:24:00,
2013-02-22 13:29:00,67.1,37.8,30.11,SSE,164,2.0,9.0,34,0.00,,,0.00,621,HR-IXPWINDi_r2_v1.2.,2013-02-22 21:29:00,
2013-02-22 13:34:00,66.1,36.9,30.11,South,184,6.0,11.0,34,0.00,,,0.00,631,HR-IXPWINDi_r2_v1.2.,2013-02-22 21:34:00,
2013-02-22 13:39:00,67.0,39.1,30.11,SE,146,3.0,11.0,36,0.00,,,0.00,645,HR-IXPWINDi_r2_v1.2.,2013-02-22 21:39:00,
2013-02-22 13:44:00,65.9,38.2,30.11,SSW,196,2.0,10.0,36,0.00,,,0.00,657,HR-IXPWINDi_r2_v1.2.,2013-02-22 21:44:00,
2013-02-22 13:49:00,65.4,37.7,30.11,SSW,204,7.0,12.0,36,0.00,,,0.00,649,HR-IXPWINDi_r2_v1.2.,2013-02-22 21:49:00,
2013-02-22 13:55:00,64.8,37.2,30.11,South,190,4.0,12.0,36,0.00,,,0.00,642,HR-IXPWINDi_r2_v1.2.,2013-02-22 21:55:00,
2013-02-22 14:00:00,66.8,39.7,30.11,South,190,2.0,11.0,37,0.00,,,0.00,629,HR-IXPWINDi_r2_v1.2.,2013-02-22 22:00:00,
2013-02-22 14:05:00,66.6,38.1,30.11,SSE,163,1.0,10.0,35,0.00,,,0.00,619,HR-IXPWINDi_r2_v1.2.,2013-02-22 22:05:00,
2013-02-22 14:10:00,66.1,39.0,30.11,SSW,200,0.0,9.0,37,0.00,,,0.00,608,HR-IXPWINDi_r2_v1.2.,2013-02-22 22:10:00,
2013-02-22 14:15:00,65.5,36.4,30.11,South,180,4.0,8.0,34,0.00,,,0.00,596,HR-IXPWINDi_r2_v1.2.,2013-02-22 22:15:00,
2013-02-22 14:20:00,64.7,37.8,30.10,SSE,163,4.0,8.0,37,0.00,,,0.00,584,HR-IXPWINDi_r2_v1.2.,2013-02-22 22:20:00,
2013-02-22 14:25:00,66.2,37.7,30.11,SE,142,3.0,8.0,35,0.00,,,0.00,571,HR-IXPWINDi_r2_v1.2.,2013-02-22 22:25:00,
2013-02-22 14:31:00,65.7,35.0,30.10,SSE,166,3.0,8.0,32,0.00,,,0.00,559,HR-IXPWINDi_r2_v1.2.,2013-02-22 22:31:00,
2013-02-22 14:36:00,65.8,38.1,30.10,SSE,168,2.0,12.0,36,0.00,,,0.00,547,HR-IXPWINDi_r2_v1.2.,2013-02-22 22:36:00,
2013-02-22 14:41:00,64.6,36.3,30.10,South,177,7.0,12.0,35,0.00,,,0.00,533,HR-IXPWINDi_r2_v1.2.,2013-02-22 22:41:00,
2013-02-22 14:46:00,64.8,38.6,30.11,SSE,150,2.0,12.0,38,0.00,,,0.00,519,HR-IXPWINDi_r2_v1.2.,2013-02-22 22:46:00,
2013-02-22 14:52:00,65.1,38.2,30.11,SSW,194,1.0,10.0,37,0.00,,,0.00,508,HR-IXPWINDi_r2_v1.2.,2013-02-22 22:52:00,
2013-02-22 14:57:00,64.2,38.0,30.11,ENE,66,2.0,10.0,38,0.00,,,0.00,492,HR-IXPWINDi_r2_v1.2.,2013-02-22 22:57:00,
2013-02-22 15:02:00,65.0,40.1,30.11,SSE,157,0.0,10.0,40,0.00,,,0.00,478,HR-IXPWINDi_r2_v1.2.,2013-02-22 23:02:00,
2013-02-22 15:07:00,65.0,40.7,30.11,SSE,152,3.0,10.0,41,0.00,,,0.00,462,HR-IXPWINDi_r2_v1.2.,2013-02-22 23:07:00,
2013-02-22 15:12:00,63.7,39.5,30.11,SSE,161,6.0,8.0,41,0.00,,,0.00,450,HR-IXPWINDi_r2_v1.2.,2013-02-22 23:12:00,
2013-02-22 15:17:00,64.5,39.6,30.11,South,190,1.0,8.0,40,0.00,,,0.00,434,HR-IXPWINDi_r2_v1.2.,2013-02-22 23:17:00,
2013-02-22 15:23:00,64.0,39.8,30.11,SSW,196,3.0,8.0,41,0.00,,,0.00,415,HR-IXPWINDi_r2_v1.2.,2013-02-22 23:23:00,
2013-02-22 15:28:00,63.9,41.5,30.11,SSE,167,2.0,8.0,44,0.00,,,0.00,404,HR-IXPWINDi_r2_v1.2.,2013-02-22 23:28:00,
2013-02-22 15:33:00,63.5,41.7,30.11,SSE,161,2.0,7.0,45,0.00,,,0.00,385,HR-IXPWINDi_r2_v1.2.,2013-02-22 23:33:00,
2013-02-22 15:38:00,63.0,40.7,30.11,South,182,6.0,10.0,44,0.00,,,0.00,369,HR-IXPWINDi_r2_v1.2.,2013-02-22 23:38:00,
2013-02-22 15:43:00,62.4,40.2,30.11,SSW,213,3.0,10.0,44,0.00,,,0.00,353,HR-IXPWINDi_r2_v1.2.,2013-02-22 23:43:00,
2013-02-22 15:48:00,62.7,41.6,30.11,South,190,2.0,7.0,46,0.00,,,0.00,338,HR-IXPWINDi_r2_v1.2.,2013-02-22 23:48:00,
2013-02-22 15:54:00,62.5,40.3,30.11,South,170,4.0,6.0,44,0.00,,,0.00,320,HR-IXPWINDi_r2_v1.2.,2013-02-22 23:54:00,
2013-02-22 15:59:00,62.3,41.2,30.11,SSW,210,2.0,6.0,46,0.00,,,0.00,304,HR-IXPWINDi_r2_v1.2.,2013-02-22 23:59:00,
2013-02-22 16:04:00,61.9,40.3,30.11,SSW,201,2.0,6.0,45,0.00,,,0.00,287,HR-IXPWINDi_r2_v1.2.,2013-02-23 00:04:00,
2013-02-22 16:09:00,60.9,38.8,30.11,South,176,5.0,9.0,44,0.00,,,0.00,269,HR-IXPWINDi_r2_v1.2.,2013-02-23 00:09:00,
2013-02-22 16:14:00,60.0,38.0,30.11,South,189,2.0,9.0,44,0.00,,,0.00,251,HR-IXPWINDi_r2_v1.2.,2013-02-23 00:14:00,
2013-02-22 16:20:00,59.4,39.1,30.11,SSE,161,0.0,7.0,47,0.00,,,0.00,132,HR-IXPWINDi_r2_v1.2.,2013-02-23 00:20:00,
2013-02-22 16:25:00,59.0,38.8,30.11,South,188,0.0,5.0,47,0.00,,,0.00,40,HR-IXPWINDi_r2_v1.2.,2013-02-23 00:25:00,
2013-02-22 16:30:00,58.7,39.0,30.11,South,190,2.0,5.0,48,0.00,,,0.00,37,HR-IXPWINDi_r2_v1.2.,2013-02-23 00:30:00,
2013-02-22 16:36:00,58.3,39.7,30.11,South,190,3.0,6.0,50,0.00,,,0.00,33,HR-IXPWINDi_r2_v1.2.,2013-02-23 00:36:00,
2013-02-22 16:41:00,57.8,39.7,30.11,SSW,192,0.0,6.0,51,0.00,,,0.00,28,HR-IXPWINDi_r2_v1.2.,2013-02-23 00:41:00,
2013-02-22 16:46:00,57.5,39.0,30.11,SE,137,2.0,6.0,50,0.00,,,0.00,26,HR-IXPWINDi_r2_v1.2.,2013-02-23 00:46:00,
2013-02-22 16:51:00,57.0,39.0,30.11,SW,217,1.0,6.0,51,0.00,,,0.00,25,HR-IXPWINDi_r2_v1.2.,2013-02-23 00:51:00,
2013-02-22 16:56:00,57.0,39.0,30.11,SSW,192,0.0,5.0,51,0.00,,,0.00,23,HR-IXPWINDi_r2_v1.2.,2013-02-23 00:56:00,
2013-02-22 17:01:00,56.6,39.6,30.11,SSE,167,4.0,5.0,53,0.00,,,0.00,21,HR-IXPWINDi_r2_v1.2.,2013-02-23 01:01:00,
2013-02-22 17:06:00,56.4,39.9,30.11,South,175,1.0,6.0,54,0.00,,,0.00,19,HR-IXPWINDi_r2_v1.2.,2013-02-23 01:06:00,
2013-02-22 17:11:00,56.2,40.2,30.11,SW,215,0.0,6.0,55,0.00,,,0.00,18,HR-IXPWINDi_r2_v1.2.,2013-02-23 01:11:00,
2013-02-22 17:16:00,55.8,40.3,30.11,South,171,0.0,4.0,56,0.00,,,0.00,16,HR-IXPWINDi_r2_v1.2.,2013-02-23 01:16:00,
2013-02-22 17:22:00,55.5,40.0,30.11,South,171,0.0,3.0,56,0.00,,,0.00,14,HR-IXPWINDi_r2_v1.2.,2013-02-23 01:22:00,
2013-02-22 17:27:00,55.3,40.3,30.12,South,191,0.0,2.0,57,0.00,,,0.00,12,HR-IXPWINDi_r2_v1.2.,2013-02-23 01:27:00,
2013-02-22 17:32:00,54.7,40.2,30.12,South,191,0.0,2.0,58,0.00,,,0.00,11,HR-IXPWINDi_r2_v1.2.,2013-02-23 01:32:00,
2013-02-22 17:37:00,54.2,40.1,30.12,South,191,0.0,2.0,59,0.00,,,0.00,7,HR-IXPWINDi_r2_v1.2.,2013-02-23 01:37:00,
2013-02-22 17:42:00,53.4,39.8,30.12,South,191,0.0,0.0,60,0.00,,,0.00,5,HR-IXPWINDi_r2_v1.2.,2013-02-23 01:42:00,
2013-02-22 17:47:00,52.4,39.7,30.12,South,191,0.0,0.0,62,0.00,,,0.00,0,HR-IXPWINDi_r2_v1.2.,2013-02-23 01:47:00,
2013-02-22 17:52:00,51.4,39.2,30.13,South,191,0.0,0.0,63,0.00,,,0.00,0,HR-IXPWINDi_r2_v1.2.,2013-02-23 01:52:00,
2013-02-22 17:58:00,50.8,39.4,30.13,South,191,0.0,0.0,65,0.00,,,0.00,0,HR-IXPWINDi_r2_v1.2.,2013-02-23 01:58:00,
2013-02-22 18:03:00,50.2,39.6,30.13,South,191,0.0,0.0,67,0.00,,,0.00,0,HR-IXPWINDi_r2_v1.2.,2013-02-23 02:03:00,
2013-02-22 18:08:00,49.6,39.0,30.13,South,191,0.0,0.0,67,0.00,,,0.00,0,HR-IXPWINDi_r2_v1.2.,2013-02-23 02:08:00,
2013-02-22 18:14:00,48.9,39.1,30.13,South,191,0.0,0.0,69,0.00,,,0.00,0,HR-IXPWINDi_r2_v1.2.,2013-02-23 02:14:00,
2013-02-22 18:19:00,48.2,38.8,30.13,South,191,0.0,0.0,70,0.00,,,0.00,0,HR-IXPWINDi_r2_v1.2.,2013-02-23 02:19:00,
2013-02-22 18:24:00,47.5,38.9,30.13,SSW,203,2.0,2.0,72,0.00,,,0.00,0,HR-IXPWINDi_r2_v1.2.,2013-02-23 02:24:00,
2013-02-22 18:29:00,47.6,39.0,30.13,SW,221,1.0,2.0,72,0.00,,,0.00,0,HR-IXPWINDi_r2_v1.2.,2013-02-23 02:29:00,
2013-02-22 18:34:00,47.4,39.1,30.13,SW,225,0.0,2.0,73,0.00,,,0.00,0,HR-IXPWINDi_r2_v1.2.,2013-02-23 02:34:00,
2013-02-22 18:39:00,47.4,39.5,30.14,SW,225,1.0,2.0,74,0.00,,,0.00,0,HR-IXPWINDi_r2_v1.2.,2013-02-23 02:39:00,
2013-02-22 18:44:00,47.8,39.9,30.14,SW,236,1.0,2.0,74,0.00,,,0.00,0,HR-IXPWINDi_r2_v1.2.,2013-02-23 02:44:00,
2013-02-22 18:49:00,48.2,40.3,30.14,WNW,297,1.0,3.0,74,0.00,,,0.00,0,HR-IXPWINDi_r2_v1.2.,2013-02-23 02:49:00,
2013-02-22 18:55:00,48.3,40.0,30.14,WNW,294,1.0,4.0,73,0.00,,,0.00,0,HR-IXPWINDi_r2_v1.2.,2013-02-23 02:55:00,
2013-02-22 19:00:00,48.2,39.6,30.14,WNW,301,1.0,4.0,72,0.00,,,0.00,0,HR-IXPWINDi_r2_v1.2.,2013-02-23 03:00:00,
2013-02-22 19:05:00,48.1,39.5,30.14,WNW,289,2.0,4.0,72,0.00,,,0.00,0,HR-IXPWINDi_r2_v1.2.,2013-02-23 03:05:00,
2013-02-22 19:10:00,47.0,38.8,30.14,WNW,289,0.0,4.0,73,0.00,,,0.00,0,HR-IXPWINDi_r2_v1.2.,2013-02-23 03:10:00,
2013-02-22 19:15:00,46.3,38.8,30.14,WNW,289,0.0,2.0,75,0.00,,,0.00,0,HR-IXPWINDi_r2_v1.2.,2013-02-23 03:15:00,
2013-02-22 19:20:00,45.8,39.3,30.14,WNW,289,0.0,1.0,78,0.00,,,0.00,0,HR-IXPWINDi_r2_v1.2.,2013-02-23 03:20:00,
2013-02-22 19:26:00,45.8,39.0,30.14,WNW,289,1.0,2.0,77,0.00,,,0.00,0,HR-IXPWINDi_r2_v1.2.,2013-02-23 03:26:00,
2013-02-22 19:31:00,45.8,39.0,30.15,WNW,289,0.0,2.0,77,0.00,,,0.00,0,HR-IXPWINDi_r2_v1.2.,2013-02-23 03:31:00,
2013-02-22 19:36:00,45.5,38.7,30.15,WNW,289,0.0,2.0,77,0.00,,,0.00,0,HR-IXPWINDi_r2_v1.2.,2013-02-23 03:36:00,
2013-02-22 19:41:00,44.8,38.6,30.15,WNW,289,0.0,1.0,79,0.00,,,0.00,0,HR-IXPWINDi_r2_v1.2.,2013-02-23 03:41:00,
2013-02-22 19:47:00,44.4,38.3,30.15,WNW,289,1.0,2.0,79,0.00,,,0.00,0,HR-IXPWINDi_r2_v1.2.,2013-02-23 03:47:00,
2013-02-22 19:52:00,44.5,38.7,30.15,WNW,289,0.0,2.0,80,0.00,,,0.00,0,HR-IXPWINDi_r2_v1.2.,2013-02-23 03:52:00,
2013-02-22 19:57:00,44.2,38.4,30.15,WNW,290,1.0,2.0,80,0.00,,,0.00,0,HR-IXPWINDi_r2_v1.2.,2013-02-23 03:57:00,
2013-02-22 20:02:00,44.9,39.1,30.16,NW,317,3.0,4.0,80,0.00,,,0.00,0,HR-IXPWINDi_r2_v1.2.,2013-02-23 04:02:00,
2013-02-22 20:07:00,45.4,38.9,30.16,NW,321,3.0,5.0,78,0.00,,,0.00,0,HR-IXPWINDi_r2_v1.2.,2013-02-23 04:07:00,
2013-02-22 20:13:00,45.5,38.7,30.16,NW,306,2.0,5.0,77,0.00,,,0.00,0,HR-IXPWINDi_r2_v1.2.,2013-02-23 04:13:00,
2013-02-22 20:18:00,45.6,38.8,30.16,WNW,290,2.0,5.0,77,0.00,,,0.00,0,HR-IXPWINDi_r2_v1.2.,2013-02-23 04:18:00,
2013-02-22 20:23:00,45.7,38.9,30.16,WNW,299,2.0,5.0,77,0.00,,,0.00,0,HR-IXPWINDi_r2_v1.2.,2013-02-23 04:23:00,
2013-02-22 20:28:00,45.4,38.6,30.16,WNW,301,3.0,5.0,77,0.00,,,0.00,0,HR-IXPWINDi_r2_v1.2.,2013-02-23 04:28:00,
2013-02-22 20:33:00,45.0,38.2,30.16,NW,309,1.0,4.0,77,0.00,,,0.00,0,HR-IXPWINDi_r2_v1.2.,2013-02-23 04:33:00,
2013-02-22 20:39:00,44.6,38.1,30.16,NW,310,0.0,3.0,78,0.00,,,0.00,0,HR-IXPWINDi_r2_v1.2.,2013-02-23 04:39:00,
2013-02-22 20:44:00,44.2,38.1,30.16,NW,309,1.0,2.0,79,0.00,,,0.00,0,HR-IXPWINDi_r2_v1.2.,2013-02-23 04:44:00,
2013-02-22 20:49:00,44.1,38.0,30.16,WNW,302,1.0,2.0,79,0.00,,,0.00,0,HR-IXPWINDi_r2_v1.2.,2013-02-23 04:49:00,
2013-02-22 20:54:00,44.0,37.9,30.16,WNW,302,1.0,2.0,79,0.00,,,0.00,0,HR-IXPWINDi_r2_v1.2.,2013-02-23 04:54:00,
2013-02-22 20:59:00,43.9,37.4,30.16,WNW,302,1.0,3.0,78,0.00,,,0.00,0,HR-IXPWINDi_r2_v1.2.,2013-02-23 04:59:00,
2013-02-22 21:00:00,43.8,37.3,30.16,WNW,302,2.0,3.0,78,0.00,,,0.00,0,HR-IXPWINDi_r2_v1.2.,2013-02-23 05:00:00,
2013-02-22 21:05:00,43.7,37.6,30.16,WNW,302,0.0,3.0,79,0.00,,,0.00,0,HR-IXPWINDi_r2_v1.2.,2013-02-23 05:05:00,
2013-02-22 21:10:00,43.3,37.5,30.16,WNW,302,1.0,2.0,80,0.00,,,0.00,0,HR-IXPWINDi_r2_v1.2.,2013-02-23 05:10:00,
2013-02-22 21:16:00,43.4,37.6,30.16,NW,317,0.0,3.0,80,0.00,,,0.00,0,HR-IXPWINDi_r2_v1.2.,2013-02-23 05:16:00,
2013-02-22 21:21:00,43.2,37.4,30.16,NNW,331,1.0,3.0,80,0.00,,,0.00,0,HR-IXPWINDi_r2_v1.2.,2013-02-23 05:21:00,
2013-02-22 21:26:00,42.9,37.1,30.17,NW,317,2.0,3.0,80,0.00,,,0.00,0,HR-IXPWINDi_r2_v1.2.,2013-02-23 05:26:00,
2013-02-22 21:31:00,42.7,36.9,30.17,NW,323,1.0,3.0,80,0.00,,,0.00,0,HR-IXPWINDi_r2_v1.2.,2013-02-23 05:31:00,
2013-02-22 21:37:00,42.8,37.3,30.17,WNW,299,1.0,3.0,81,0.00,,,0.00,0,HR-IXPWINDi_r2_v1.2.,2013-02-23 05:37:00,
2013-02-22 21:42:00,43.1,37.3,30.16,NW,314,0.0,5.0,80,0.00,,,0.00,0,HR-IXPWINDi_r2_v1.2.,2013-02-23 05:42:00,
2013-02-22 21:47:00,42.9,37.1,30.17,NW,306,3.0,5.0,80,0.00,,,0.00,0,HR-IXPWINDi_r2_v1.2.,2013-02-23 05:47:00,
2013-02-22 21:52:00,42.8,37.0,30.17,NW,323,2.0,4.0,80,0.00,,,0.00,0,HR-IXPWINDi_r2_v1.2.,2013-02-23 05:52:00,
2013-02-22 21:57:00,43.1,37.0,30.16,NW,320,0.0,5.0,79,0.00,,,0.00,0,HR-IXPWINDi_r2_v1.2.,2013-02-23 05:57:00,
2013-02-22 22:03:00,43.0,36.9,30.16,NW,320,0.0,5.0,79,0.00,,,0.00,0,HR-IXPWINDi_r2_v1.2.,2013-02-23 06:03:00,
2013-02-22 22:08:00,42.9,36.8,30.16,NW,325,2.0,3.0,79,0.00,,,0.00,0,HR-IXPWINDi_r2_v1.2.,2013-02-23 06:08:00,
2013-02-22 22:13:00,42.4,36.6,30.16,WNW,300,2.0,3.0,80,0.00,,,0.00,0,HR-IXPWINDi_r2_v1.2.,2013-02-23 06:13:00,
2013-02-22 22:19:00,42.4,36.6,30.16,NW,310,2.0,4.0,80,0.00,,,0.00,0,HR-IXPWINDi_r2_v1.2.,2013-02-23 06:19:00,
2013-02-22 22:24:00,42.8,37.0,30.16,NW,321,1.0,5.0,80,0.00,,,0.00,0,HR-IXPWINDi_r2_v1.2.,2013-02-23 06:24:00,
2013-02-22 22:29:00,42.7,36.6,30.16,WNW,291,3.0,5.0,79,0.00,,,0.00,0,HR-IXPWINDi_r2_v1.2.,2013-02-23 06:29:00,
2013-02-22 22:34:00,42.9,36.8,30.16,WNW,296,3.0,5.0,79,0.00,,,0.00,0,HR-IXPWINDi_r2_v1.2.,2013-02-23 06:34:00,
2013-02-22 22:39:00,43.2,37.1,30.16,NNW,330,1.0,5.0,79,0.00,,,0.00,0,HR-IXPWINDi_r2_v1.2.,2013-02-23 06:39:00,
2013-02-22 22:44:00,42.5,36.4,30.16,North,351,0.0,5.0,79,0.00,,,0.00,0,HR-IXPWINDi_r2_v1.2.,2013-02-23 06:44:00,
2013-02-22 22:50:00,41.7,35.9,30.15,NNW,340,2.0,3.0,80,0.00,,,0.00,0,HR-IXPWINDi_r2_v1.2.,2013-02-23 06:50:00,
2013-02-22 22:55:00,41.7,36.3,30.15,NNW,328,1.0,3.0,81,0.00,,,0.00,0,HR-IXPWINDi_r2_v1.2.,2013-02-23 06:55:00,
2013-02-22 23:00:00,41.5,36.4,30.15,NNW,328,0.0,3.0,82,0.00,,,0.00,0,HR-IXPWINDi_r2_v1.2.,2013-02-23 07:00:00,
2013-02-22 23:05:00,41.5,36.4,30.15,NNW,328,2.0,2.0,82,0.00,,,0.00,0,HR-IXPWINDi_r2_v1.2.,2013-02-23 07:05:00,
2013-02-22 23:10:00,41.4,36.3,30.15,NNW,328,1.0,2.0,82,0.00,,,0.00,0,HR-IXPWINDi_r2_v1.2.,2013-02-23 07:10:00,
2013-02-22 23:16:00,41.3,36.2,30.14,NNW,331,2.0,3.0,82,0.00,,,0.00,0,HR-IXPWINDi_r2_v1.2.,2013-02-23 07:16:00,
2013-02-22 23:21:00,41.5,36.4,30.14,NW,326,1.0,4.0,82,0.00,,,0.00,0,HR-IXPWINDi_r2_v1.2.,2013-02-23 07:21:00,
2013-02-22 23:26:00,41.6,36.5,30.14,WNW,290,3.0,4.0,82,0.00,,,0.00,0,HR-IXPWINDi_r2_v1.2.,2013-02-23 07:26:00,
2013-02-22 23:31:00,41.7,36.3,30.14,NW,306,2.0,4.0,81,0.00,,,0.00,0,HR-IXPWINDi_r2_v1.2.,2013-02-23 07:31:00,
2013-02-22 23:37:00,41.7,36.3,30.14,NW,306,1.0,4.0,81,0.00,,,0.00,0,HR-IXPWINDi_r2_v1.2.,2013-02-23 07:37:00,
2013-02-22 23:42:00,41.5,36.1,30.14,NW,306,0.0,3.0,81,0.00,,,0.00,0,HR-IXPWINDi_r2_v1.2.,2013-02-23 07:42:00,
2013-02-22 23:47:00,41.3,35.9,30.15,NW,306,0.0,2.0,81,0.00,,,0.00,0,HR-IXPWINDi_r2_v1.2.,2013-02-23 07:47:00,
2013-02-22 23:52:00,41.1,35.7,30.15,NW,306,0.0,2.0,81,0.00,,,0.00,0,HR-IXPWINDi_r2_v1.2.,2013-02-23 07:52:00,
2013-02-22 23:58:00,40.5,35.4,30.15,NW,306,1.0,2.0,82,0.00,,,0.00,0,HR-IXPWINDi_r2_v1.2.,2013-02-23 07:58:00,